sensor_id;sensor_type;location;lat;lon;timestamp;P1;durP1;ratioP1;P2;durP2;ratioP2
22007;SDS011;11168;56.976;24.168;2023-02-17T00:01:11;57.08;;;15.93;;
22007;SDS011;11168;56.976;24.168;2023-02-17T00:03:48;62.70;;;16.88;;
22007;SDS011;11168;56.976;24.168;2023-02-17T00:06:16;52.50;;;15.65;;
22007;SDS011;11168;56.976;24.168;2023-02-17T00:08:45;54.80;;;15.50;;
22007;SDS011;11168;56.976;24.168;2023-02-17T00:11:12;47.58;;;14.80;;
22007;SDS011;11168;56.976;24.168;2023-02-17T00:13:40;46.17;;;14.93;;
22007;SDS011;11168;56.976;24.168;2023-02-17T00:16:12;45.25;;;14.02;;
22007;SDS011;11168;56.976;24.168;2023-02-17T00:18:44;38.70;;;13.45;;
22007;SDS011;11168;56.976;24.168;2023-02-17T00:21:13;41.45;;;12.90;;
22007;SDS011;11168;56.976;24.168;2023-02-17T00:23:43;42.88;;;13.25;;
22007;SDS011;11168;56.976;24.168;2023-02-17T00:26:11;45.20;;;13.07;;
22007;SDS011;11168;56.976;24.168;2023-02-17T00:28:39;41.10;;;12.45;;
22007;SDS011;11168;56.976;24.168;2023-02-17T00:31:07;40.15;;;13.07;;
22007;SDS011;11168;56.976;24.168;2023-02-17T00:33:35;38.22;;;13.55;;
22007;SDS011;11168;56.976;24.168;2023-02-17T00:36:05;41.83;;;13.23;;
22007;SDS011;11168;56.976;24.168;2023-02-17T00:38:35;35.42;;;12.15;;
22007;SDS011;11168;56.976;24.168;2023-02-17T00:41:02;41.80;;;12.60;;
22007;SDS011;11168;56.976;24.168;2023-02-17T00:43:30;38.97;;;12.77;;
22007;SDS011;11168;56.976;24.168;2023-02-17T00:45:57;40.53;;;12.48;;
22007;SDS011;11168;56.976;24.168;2023-02-17T00:48:24;39.30;;;13.07;;
22007;SDS011;11168;56.976;24.168;2023-02-17T00:50:51;40.03;;;13.20;;
22007;SDS011;11168;56.976;24.168;2023-02-17T00:53:18;47.97;;;14.52;;
22007;SDS011;11168;56.976;24.168;2023-02-17T00:55:45;40.03;;;12.85;;
22007;SDS011;11168;56.976;24.168;2023-02-17T00:58:12;37.10;;;12.80;;
22007;SDS011;11168;56.976;24.168;2023-02-17T01:00:39;44.47;;;14.15;;
22007;SDS011;11168;56.976;24.168;2023-02-17T01:03:07;39.17;;;12.45;;
22007;SDS011;11168;56.976;24.168;2023-02-17T01:05:38;37.70;;;12.77;;
22007;SDS011;11168;56.976;24.168;2023-02-17T01:08:10;37.78;;;13.02;;
22007;SDS011;11168;56.976;24.168;2023-02-17T01:10:38;44.35;;;13.00;;
22007;SDS011;11168;56.976;24.168;2023-02-17T01:13:06;38.80;;;12.35;;
22007;SDS011;11168;56.976;24.168;2023-02-17T01:15:37;43.20;;;13.75;;
22007;SDS011;11168;56.976;24.168;2023-02-17T01:18:12;42.92;;;13.77;;
22007;SDS011;11168;56.976;24.168;2023-02-17T01:20:40;38.70;;;13.00;;
22007;SDS011;11168;56.976;24.168;2023-02-17T01:23:07;43.13;;;14.30;;
22007;SDS011;11168;56.976;24.168;2023-02-17T01:25:37;45.35;;;13.60;;
22007;SDS011;11168;56.976;24.168;2023-02-17T01:28:06;46.50;;;14.30;;
22007;SDS011;11168;56.976;24.168;2023-02-17T01:30:33;49.95;;;14.48;;
22007;SDS011;11168;56.976;24.168;2023-02-17T01:33:00;44.60;;;14.50;;
22007;SDS011;11168;56.976;24.168;2023-02-17T01:35:27;46.58;;;14.38;;
22007;SDS011;11168;56.976;24.168;2023-02-17T01:37:54;47.13;;;15.00;;
22007;SDS011;11168;56.976;24.168;2023-02-17T01:40:21;49.08;;;14.93;;
22007;SDS011;11168;56.976;24.168;2023-02-17T01:42:48;50.40;;;14.40;;
22007;SDS011;11168;56.976;24.168;2023-02-17T01:47:47;49.67;;;14.73;;
22007;SDS011;11168;56.976;24.168;2023-02-17T01:50:36;55.20;;;16.42;;
22007;SDS011;11168;56.976;24.168;2023-02-17T01:53:13;44.85;;;14.63;;
22007;SDS011;11168;56.976;24.168;2023-02-17T01:55:43;41.70;;;15.25;;
22007;SDS011;11168;56.976;24.168;2023-02-17T01:58:11;45.95;;;15.73;;
22007;SDS011;11168;56.976;24.168;2023-02-17T02:00:42;53.45;;;16.15;;
22007;SDS011;11168;56.976;24.168;2023-02-17T02:03:09;60.55;;;16.60;;
22007;SDS011;11168;56.976;24.168;2023-02-17T02:05:39;50.47;;;15.70;;
22007;SDS011;11168;56.976;24.168;2023-02-17T02:08:07;51.92;;;14.00;;
22007;SDS011;11168;56.976;24.168;2023-02-17T02:10:36;47.70;;;14.65;;
22007;SDS011;11168;56.976;24.168;2023-02-17T02:13:04;49.30;;;13.80;;
22007;SDS011;11168;56.976;24.168;2023-02-17T02:15:56;52.25;;;15.18;;
22007;SDS011;11168;56.976;24.168;2023-02-17T02:19:11;49.17;;;14.13;;
22007;SDS011;11168;56.976;24.168;2023-02-17T02:31:52;59.05;;;19.58;;
22007;SDS011;11168;56.976;24.168;2023-02-17T02:34:36;61.92;;;19.25;;
22007;SDS011;11168;56.976;24.168;2023-02-17T02:39:41;68.43;;;24.48;;
22007;SDS011;11168;56.976;24.168;2023-02-17T02:42:13;69.43;;;22.70;;
22007;SDS011;11168;56.976;24.168;2023-02-17T02:44:42;62.10;;;21.65;;
22007;SDS011;11168;56.976;24.168;2023-02-17T02:50:07;73.13;;;23.35;;
22007;SDS011;11168;56.976;24.168;2023-02-17T02:58:19;59.92;;;19.83;;
22007;SDS011;11168;56.976;24.168;2023-02-17T03:00:58;65.10;;;21.13;;
22007;SDS011;11168;56.976;24.168;2023-02-17T03:06:35;61.22;;;19.50;;
22007;SDS011;11168;56.976;24.168;2023-02-17T03:09:10;62.17;;;20.42;;
22007;SDS011;11168;56.976;24.168;2023-02-17T03:11:42;69.88;;;20.00;;
22007;SDS011;11168;56.976;24.168;2023-02-17T03:14:11;54.53;;;17.60;;
22007;SDS011;11168;56.976;24.168;2023-02-17T03:16:40;69.28;;;18.58;;
22007;SDS011;11168;56.976;24.168;2023-02-17T03:19:08;71.05;;;18.52;;
22007;SDS011;11168;56.976;24.168;2023-02-17T03:24:07;68.75;;;18.48;;
22007;SDS011;11168;56.976;24.168;2023-02-17T03:26:34;62.42;;;18.17;;
22007;SDS011;11168;56.976;24.168;2023-02-17T03:29:01;65.13;;;18.33;;
22007;SDS011;11168;56.976;24.168;2023-02-17T03:31:28;62.42;;;17.42;;
22007;SDS011;11168;56.976;24.168;2023-02-17T03:33:56;74.78;;;18.17;;
22007;SDS011;11168;56.976;24.168;2023-02-17T03:36:24;63.78;;;18.48;;
22007;SDS011;11168;56.976;24.168;2023-02-17T03:38:51;70.68;;;20.63;;
22007;SDS011;11168;56.976;24.168;2023-02-17T03:41:18;75.63;;;20.70;;
22007;SDS011;11168;56.976;24.168;2023-02-17T03:43:44;74.90;;;19.98;;
22007;SDS011;11168;56.976;24.168;2023-02-17T03:46:12;82.45;;;21.67;;
22007;SDS011;11168;56.976;24.168;2023-02-17T03:48:40;73.72;;;18.80;;
22007;SDS011;11168;56.976;24.168;2023-02-17T03:51:17;85.03;;;18.75;;
22007;SDS011;11168;56.976;24.168;2023-02-17T03:53:46;86.82;;;22.30;;
22007;SDS011;11168;56.976;24.168;2023-02-17T03:56:14;88.32;;;20.80;;
22007;SDS011;11168;56.976;24.168;2023-02-17T03:58:42;84.68;;;19.58;;
22007;SDS011;11168;56.976;24.168;2023-02-17T06:59:00;162.55;;;30.63;;
22007;SDS011;11168;56.976;24.168;2023-02-17T07:01:28;184.07;;;33.30;;
22007;SDS011;11168;56.976;24.168;2023-02-17T07:03:55;188.48;;;32.55;;
22007;SDS011;11168;56.976;24.168;2023-02-17T07:06:23;170.40;;;33.20;;
22007;SDS011;11168;56.976;24.168;2023-02-17T07:08:50;154.35;;;31.40;;
22007;SDS011;11168;56.976;24.168;2023-02-17T07:11:18;173.13;;;31.48;;
22007;SDS011;11168;56.976;24.168;2023-02-17T07:13:45;159.52;;;31.45;;
22007;SDS011;11168;56.976;24.168;2023-02-17T07:16:13;128.15;;;28.23;;
22007;SDS011;11168;56.976;24.168;2023-02-17T07:18:40;145.00;;;30.77;;
22007;SDS011;11168;56.976;24.168;2023-02-17T07:21:07;148.75;;;30.98;;
22007;SDS011;11168;56.976;24.168;2023-02-17T07:23:35;136.93;;;29.83;;
22007;SDS011;11168;56.976;24.168;2023-02-17T07:26:04;154.80;;;29.58;;
22007;SDS011;11168;56.976;24.168;2023-02-17T07:28:35;130.52;;;29.33;;
22007;SDS011;11168;56.976;24.168;2023-02-17T07:31:13;135.02;;;29.95;;
22007;SDS011;11168;56.976;24.168;2023-02-17T07:33:42;140.95;;;28.38;;
22007;SDS011;11168;56.976;24.168;2023-02-17T07:36:11;126.28;;;26.40;;
22007;SDS011;11168;56.976;24.168;2023-02-17T07:38:41;118.53;;;24.83;;
22007;SDS011;11168;56.976;24.168;2023-02-17T07:41:15;132.38;;;26.25;;
22007;SDS011;11168;56.976;24.168;2023-02-17T07:43:44;124.60;;;25.33;;
22007;SDS011;11168;56.976;24.168;2023-02-17T07:46:12;133.43;;;25.15;;
22007;SDS011;11168;56.976;24.168;2023-02-17T07:48:40;117.25;;;26.35;;
22007;SDS011;11168;56.976;24.168;2023-02-17T07:51:08;114.38;;;23.58;;
22007;SDS011;11168;56.976;24.168;2023-02-17T07:53:36;113.40;;;26.25;;
22007;SDS011;11168;56.976;24.168;2023-02-17T07:56:04;119.72;;;26.73;;
22007;SDS011;11168;56.976;24.168;2023-02-17T07:58:33;123.70;;;27.42;;
22007;SDS011;11168;56.976;24.168;2023-02-17T08:01:21;124.05;;;29.90;;
22007;SDS011;11168;56.976;24.168;2023-02-17T08:03:49;127.93;;;28.38;;
22007;SDS011;11168;56.976;24.168;2023-02-17T08:06:20;123.18;;;30.55;;
22007;SDS011;11168;56.976;24.168;2023-02-17T08:08:49;131.65;;;31.77;;
22007;SDS011;11168;56.976;24.168;2023-02-17T08:11:35;146.20;;;34.92;;
22007;SDS011;11168;56.976;24.168;2023-02-17T08:14:21;141.60;;;34.50;;
22007;SDS011;11168;56.976;24.168;2023-02-17T08:16:49;131.15;;;34.25;;
22007;SDS011;11168;56.976;24.168;2023-02-17T08:19:17;129.05;;;34.42;;
22007;SDS011;11168;56.976;24.168;2023-02-17T08:21:44;131.90;;;33.08;;
22007;SDS011;11168;56.976;24.168;2023-02-17T08:24:11;133.48;;;36.75;;
22007;SDS011;11168;56.976;24.168;2023-02-17T08:26:41;131.13;;;37.57;;
22007;SDS011;11168;56.976;24.168;2023-02-17T08:29:08;128.68;;;36.92;;
22007;SDS011;11168;56.976;24.168;2023-02-17T08:31:35;138.20;;;37.85;;
22007;SDS011;11168;56.976;24.168;2023-02-17T08:34:04;121.35;;;35.72;;
22007;SDS011;11168;56.976;24.168;2023-02-17T08:36:32;117.30;;;32.80;;
22007;SDS011;11168;56.976;24.168;2023-02-17T08:38:59;115.50;;;32.28;;
22007;SDS011;11168;56.976;24.168;2023-02-17T08:41:31;109.25;;;29.67;;
22007;SDS011;11168;56.976;24.168;2023-02-17T08:44:00;101.38;;;29.20;;
22007;SDS011;11168;56.976;24.168;2023-02-17T08:46:33;93.68;;;28.63;;
22007;SDS011;11168;56.976;24.168;2023-02-17T08:49:01;100.15;;;27.92;;
22007;SDS011;11168;56.976;24.168;2023-02-17T08:51:28;98.75;;;28.38;;
22007;SDS011;11168;56.976;24.168;2023-02-17T08:53:57;104.28;;;30.50;;
22007;SDS011;11168;56.976;24.168;2023-02-17T08:56:26;100.57;;;31.58;;
22007;SDS011;11168;56.976;24.168;2023-02-17T08:58:54;94.10;;;30.92;;
22007;SDS011;11168;56.976;24.168;2023-02-17T09:01:21;97.55;;;28.30;;
22007;SDS011;11168;56.976;24.168;2023-02-17T09:03:49;93.47;;;28.52;;
22007;SDS011;11168;56.976;24.168;2023-02-17T09:06:18;93.00;;;28.35;;
22007;SDS011;11168;56.976;24.168;2023-02-17T09:08:46;81.28;;;27.98;;
22007;SDS011;11168;56.976;24.168;2023-02-17T09:11:14;82.90;;;27.05;;
22007;SDS011;11168;56.976;24.168;2023-02-17T09:13:44;89.47;;;27.98;;
22007;SDS011;11168;56.976;24.168;2023-02-17T09:16:11;84.72;;;28.13;;
22007;SDS011;11168;56.976;24.168;2023-02-17T09:18:38;82.85;;;28.42;;
22007;SDS011;11168;56.976;24.168;2023-02-17T09:21:06;79.00;;;29.27;;
22007;SDS011;11168;56.976;24.168;2023-02-17T09:23:35;87.18;;;30.05;;
22007;SDS011;11168;56.976;24.168;2023-02-17T09:26:04;84.07;;;29.92;;
22007;SDS011;11168;56.976;24.168;2023-02-17T09:28:34;72.60;;;26.95;;
22007;SDS011;11168;56.976;24.168;2023-02-17T09:31:08;73.78;;;26.08;;
22007;SDS011;11168;56.976;24.168;2023-02-17T09:33:35;66.85;;;26.08;;
22007;SDS011;11168;56.976;24.168;2023-02-17T09:36:03;68.15;;;25.10;;
22007;SDS011;11168;56.976;24.168;2023-02-17T09:38:31;61.00;;;24.70;;
22007;SDS011;11168;56.976;24.168;2023-02-17T09:41:01;62.63;;;25.15;;
22007;SDS011;11168;56.976;24.168;2023-02-17T09:43:41;64.00;;;24.55;;
22007;SDS011;11168;56.976;24.168;2023-02-17T09:46:10;74.13;;;26.70;;
22007;SDS011;11168;56.976;24.168;2023-02-17T09:49:03;79.93;;;28.60;;
22007;SDS011;11168;56.976;24.168;2023-02-17T09:51:55;72.47;;;26.77;;
22007;SDS011;11168;56.976;24.168;2023-02-17T09:57:24;58.08;;;23.58;;
22007;SDS011;11168;56.976;24.168;2023-02-17T09:59:56;55.83;;;22.55;;
22007;SDS011;11168;56.976;24.168;2023-02-17T10:02:31;58.45;;;25.48;;
22007;SDS011;11168;56.976;24.168;2023-02-17T10:05:06;53.92;;;24.77;;
22007;SDS011;11168;56.976;24.168;2023-02-17T10:07:44;65.07;;;25.60;;
22007;SDS011;11168;56.976;24.168;2023-02-17T10:10:19;64.80;;;27.05;;
22007;SDS011;11168;56.976;24.168;2023-02-17T10:12:50;59.30;;;24.95;;
22007;SDS011;11168;56.976;24.168;2023-02-17T10:15:24;55.05;;;24.42;;
22007;SDS011;11168;56.976;24.168;2023-02-17T10:20:31;46.67;;;22.63;;
22007;SDS011;11168;56.976;24.168;2023-02-17T10:23:16;47.53;;;23.08;;
22007;SDS011;11168;56.976;24.168;2023-02-17T10:25:51;50.00;;;22.00;;
22007;SDS011;11168;56.976;24.168;2023-02-17T10:28:33;50.55;;;22.73;;
22007;SDS011;11168;56.976;24.168;2023-02-17T10:34:04;48.03;;;21.70;;
22007;SDS011;11168;56.976;24.168;2023-02-17T10:37:13;46.50;;;21.40;;
22007;SDS011;11168;56.976;24.168;2023-02-17T10:39:47;51.70;;;22.13;;
22007;SDS011;11168;56.976;24.168;2023-02-17T10:42:34;46.80;;;22.10;;
22007;SDS011;11168;56.976;24.168;2023-02-17T10:45:14;64.13;;;33.10;;
22007;SDS011;11168;56.976;24.168;2023-02-17T10:48:03;45.30;;;23.15;;
22007;SDS011;11168;56.976;24.168;2023-02-17T10:50:39;48.03;;;22.25;;
22007;SDS011;11168;56.976;24.168;2023-02-17T10:53:18;46.08;;;22.60;;
22007;SDS011;11168;56.976;24.168;2023-02-17T10:58:28;51.13;;;22.60;;
22007;SDS011;11168;56.976;24.168;2023-02-17T11:00:59;45.00;;;21.65;;
22007;SDS011;11168;56.976;24.168;2023-02-17T11:03:28;48.05;;;22.15;;
22007;SDS011;11168;56.976;24.168;2023-02-17T11:05:58;43.10;;;21.23;;
22007;SDS011;11168;56.976;24.168;2023-02-17T11:11:03;46.08;;;21.30;;
22007;SDS011;11168;56.976;24.168;2023-02-17T11:13:42;47.25;;;22.63;;
22007;SDS011;11168;56.976;24.168;2023-02-17T11:16:25;46.55;;;21.40;;
22007;SDS011;11168;56.976;24.168;2023-02-17T11:18:54;41.88;;;21.77;;
22007;SDS011;11168;56.976;24.168;2023-02-17T11:21:21;40.22;;;20.10;;
22007;SDS011;11168;56.976;24.168;2023-02-17T11:23:51;41.65;;;20.08;;
22007;SDS011;11168;56.976;24.168;2023-02-17T11:26:22;41.88;;;20.27;;
22007;SDS011;11168;56.976;24.168;2023-02-17T11:28:52;42.00;;;19.05;;
22007;SDS011;11168;56.976;24.168;2023-02-17T11:31:27;43.25;;;20.35;;
22007;SDS011;11168;56.976;24.168;2023-02-17T11:33:56;48.40;;;21.55;;
22007;SDS011;11168;56.976;24.168;2023-02-17T11:36:24;42.92;;;20.60;;
22007;SDS011;11168;56.976;24.168;2023-02-17T11:38:53;50.35;;;21.92;;
22007;SDS011;11168;56.976;24.168;2023-02-17T11:41:21;44.65;;;20.90;;
22007;SDS011;11168;56.976;24.168;2023-02-17T11:43:58;47.08;;;21.70;;
22007;SDS011;11168;56.976;24.168;2023-02-17T11:58:15;53.72;;;22.48;;
22007;SDS011;11168;56.976;24.168;2023-02-17T12:01:00;47.22;;;21.50;;
22007;SDS011;11168;56.976;24.168;2023-02-17T12:09:26;50.75;;;21.73;;
22007;SDS011;11168;56.976;24.168;2023-02-17T12:12:18;48.92;;;20.88;;
22007;SDS011;11168;56.976;24.168;2023-02-17T12:23:57;50.75;;;21.95;;
22007;SDS011;11168;56.976;24.168;2023-02-17T12:29:03;48.88;;;22.10;;
22007;SDS011;11168;56.976;24.168;2023-02-17T12:37:22;48.95;;;21.77;;
22007;SDS011;11168;56.976;24.168;2023-02-17T12:39:53;50.58;;;21.17;;
22007;SDS011;11168;56.976;24.168;2023-02-17T12:42:24;53.83;;;24.25;;
22007;SDS011;11168;56.976;24.168;2023-02-17T12:44:56;52.13;;;21.30;;
22007;SDS011;11168;56.976;24.168;2023-02-17T12:47:30;52.80;;;22.55;;
22007;SDS011;11168;56.976;24.168;2023-02-17T12:50:15;58.25;;;24.55;;
22007;SDS011;11168;56.976;24.168;2023-02-17T12:52:51;52.25;;;22.80;;
22007;SDS011;11168;56.976;24.168;2023-02-17T12:55:42;47.60;;;21.92;;
22007;SDS011;11168;56.976;24.168;2023-02-17T12:58:20;53.92;;;23.38;;
22007;SDS011;11168;56.976;24.168;2023-02-17T13:03:27;64.78;;;25.90;;
22007;SDS011;11168;56.976;24.168;2023-02-17T13:06:03;51.50;;;24.85;;
22007;SDS011;11168;56.976;24.168;2023-02-17T13:08:55;55.28;;;24.50;;
22007;SDS011;11168;56.976;24.168;2023-02-17T13:11:27;53.13;;;23.73;;
22007;SDS011;11168;56.976;24.168;2023-02-17T13:13:56;48.72;;;22.58;;
22007;SDS011;11168;56.976;24.168;2023-02-17T13:16:24;48.90;;;23.52;;
22007;SDS011;11168;56.976;24.168;2023-02-17T13:18:51;47.67;;;22.63;;
22007;SDS011;11168;56.976;24.168;2023-02-17T13:24:02;44.45;;;21.88;;
22007;SDS011;11168;56.976;24.168;2023-02-17T13:26:41;38.17;;;19.05;;
22007;SDS011;11168;56.976;24.168;2023-02-17T13:31:47;44.53;;;21.27;;
22007;SDS011;11168;56.976;24.168;2023-02-17T13:34:27;42.45;;;21.27;;
22007;SDS011;11168;56.976;24.168;2023-02-17T13:40:07;45.45;;;22.23;;
22007;SDS011;11168;56.976;24.168;2023-02-17T13:42:42;45.03;;;21.52;;
22007;SDS011;11168;56.976;24.168;2023-02-17T13:48:09;32.72;;;17.60;;
22007;SDS011;11168;56.976;24.168;2023-02-17T13:50:43;31.80;;;17.05;;
22007;SDS011;11168;56.976;24.168;2023-02-17T13:53:19;30.45;;;16.25;;
22007;SDS011;11168;56.976;24.168;2023-02-17T13:55:56;29.50;;;15.43;;
22007;SDS011;11168;56.976;24.168;2023-02-17T13:58:26;31.65;;;16.60;;
22007;SDS011;11168;56.976;24.168;2023-02-17T14:00:54;29.52;;;16.10;;
22007;SDS011;11168;56.976;24.168;2023-02-17T14:03:24;28.42;;;14.52;;
22007;SDS011;11168;56.976;24.168;2023-02-17T14:05:52;25.65;;;14.25;;
22007;SDS011;11168;56.976;24.168;2023-02-17T14:08:28;27.25;;;15.98;;
22007;SDS011;11168;56.976;24.168;2023-02-17T14:13:33;28.05;;;14.68;;
22007;SDS011;11168;56.976;24.168;2023-02-17T14:16:01;25.17;;;14.57;;
22007;SDS011;11168;56.976;24.168;2023-02-17T14:18:30;20.77;;;12.43;;
22007;SDS011;11168;56.976;24.168;2023-02-17T14:21:08;21.73;;;12.32;;
22007;SDS011;11168;56.976;24.168;2023-02-17T14:23:42;20.35;;;12.57;;
22007;SDS011;11168;56.976;24.168;2023-02-17T14:26:12;23.75;;;13.68;;
22007;SDS011;11168;56.976;24.168;2023-02-17T14:28:55;25.63;;;14.15;;
22007;SDS011;11168;56.976;24.168;2023-02-17T14:31:26;23.58;;;13.77;;
22007;SDS011;11168;56.976;24.168;2023-02-17T14:33:56;23.38;;;13.55;;
22007;SDS011;11168;56.976;24.168;2023-02-17T14:36:28;24.75;;;14.65;;
22007;SDS011;11168;56.976;24.168;2023-02-17T14:38:56;23.48;;;13.80;;
22007;SDS011;11168;56.976;24.168;2023-02-17T14:41:24;22.02;;;13.23;;
22007;SDS011;11168;56.976;24.168;2023-02-17T14:43:51;28.50;;;15.25;;
22007;SDS011;11168;56.976;24.168;2023-02-17T14:46:18;24.70;;;14.48;;
22007;SDS011;11168;56.976;24.168;2023-02-17T14:48:46;27.45;;;15.35;;
22007;SDS011;11168;56.976;24.168;2023-02-17T14:51:15;29.23;;;14.82;;
22007;SDS011;11168;56.976;24.168;2023-02-17T14:53:43;24.45;;;14.57;;
22007;SDS011;11168;56.976;24.168;2023-02-17T14:58:53;29.05;;;15.02;;
22007;SDS011;11168;56.976;24.168;2023-02-17T15:01:20;26.65;;;14.70;;
22007;SDS011;11168;56.976;24.168;2023-02-17T15:03:49;26.20;;;15.13;;
22007;SDS011;11168;56.976;24.168;2023-02-17T15:06:21;25.77;;;14.02;;
22007;SDS011;11168;56.976;24.168;2023-02-17T15:08:54;27.73;;;13.90;;
22007;SDS011;11168;56.976;24.168;2023-02-17T15:14:02;27.33;;;14.48;;
22007;SDS011;11168;56.976;24.168;2023-02-17T15:16:30;27.48;;;14.70;;
22007;SDS011;11168;56.976;24.168;2023-02-17T15:18:57;24.92;;;14.52;;
22007;SDS011;11168;56.976;24.168;2023-02-17T15:21:28;29.92;;;15.82;;
22007;SDS011;11168;56.976;24.168;2023-02-17T15:23:58;34.40;;;16.73;;
22007;SDS011;11168;56.976;24.168;2023-02-17T15:26:26;34.70;;;17.35;;
22007;SDS011;11168;56.976;24.168;2023-02-17T15:28:56;35.80;;;16.95;;
22007;SDS011;11168;56.976;24.168;2023-02-17T15:31:23;36.05;;;16.80;;
22007;SDS011;11168;56.976;24.168;2023-02-17T15:33:55;40.22;;;17.88;;
22007;SDS011;11168;56.976;24.168;2023-02-17T15:36:24;43.15;;;19.55;;
22007;SDS011;11168;56.976;24.168;2023-02-17T15:38:52;34.03;;;15.25;;
22007;SDS011;11168;56.976;24.168;2023-02-17T15:41:20;45.17;;;19.83;;
22007;SDS011;11168;56.976;24.168;2023-02-17T15:43:50;42.13;;;18.02;;
22007;SDS011;11168;56.976;24.168;2023-02-17T15:46:18;42.38;;;17.85;;
22007;SDS011;11168;56.976;24.168;2023-02-17T15:48:46;41.10;;;17.48;;
22007;SDS011;11168;56.976;24.168;2023-02-17T15:53:48;46.30;;;17.73;;
22007;SDS011;11168;56.976;24.168;2023-02-17T15:56:17;44.75;;;17.80;;
22007;SDS011;11168;56.976;24.168;2023-02-17T15:58:48;44.20;;;19.30;;
22007;SDS011;11168;56.976;24.168;2023-02-17T16:03:54;43.92;;;18.40;;
22007;SDS011;11168;56.976;24.168;2023-02-17T16:06:21;47.85;;;19.70;;
22007;SDS011;11168;56.976;24.168;2023-02-17T16:08:48;45.90;;;19.67;;
22007;SDS011;11168;56.976;24.168;2023-02-17T16:11:16;53.95;;;20.27;;
22007;SDS011;11168;56.976;24.168;2023-02-17T16:13:44;45.75;;;19.13;;
22007;SDS011;11168;56.976;24.168;2023-02-17T16:18:59;45.80;;;18.80;;
22007;SDS011;11168;56.976;24.168;2023-02-17T16:21:27;50.42;;;19.30;;
22007;SDS011;11168;56.976;24.168;2023-02-17T16:23:54;51.13;;;20.02;;
22007;SDS011;11168;56.976;24.168;2023-02-17T16:26:29;47.33;;;19.58;;
22007;SDS011;11168;56.976;24.168;2023-02-17T16:29:08;46.70;;;18.83;;
22007;SDS011;11168;56.976;24.168;2023-02-17T16:31:41;50.38;;;20.67;;
22007;SDS011;11168;56.976;24.168;2023-02-17T16:34:15;51.90;;;19.38;;
22007;SDS011;11168;56.976;24.168;2023-02-17T16:36:46;54.88;;;20.98;;
22007;SDS011;11168;56.976;24.168;2023-02-17T16:39:15;54.55;;;21.17;;
22007;SDS011;11168;56.976;24.168;2023-02-17T16:41:43;54.80;;;20.77;;
22007;SDS011;11168;56.976;24.168;2023-02-17T16:44:11;56.47;;;21.23;;
22007;SDS011;11168;56.976;24.168;2023-02-17T16:46:47;60.85;;;24.55;;
22007;SDS011;11168;56.976;24.168;2023-02-17T16:49:18;56.00;;;22.05;;
22007;SDS011;11168;56.976;24.168;2023-02-17T16:51:49;60.65;;;21.92;;
22007;SDS011;11168;56.976;24.168;2023-02-17T16:54:17;59.53;;;23.40;;
22007;SDS011;11168;56.976;24.168;2023-02-17T16:56:45;61.10;;;25.00;;
22007;SDS011;11168;56.976;24.168;2023-02-17T16:59:14;61.70;;;21.70;;
22007;SDS011;11168;56.976;24.168;2023-02-17T17:01:42;59.13;;;21.67;;
22007;SDS011;11168;56.976;24.168;2023-02-17T17:04:09;58.70;;;21.45;;
22007;SDS011;11168;56.976;24.168;2023-02-17T17:06:36;57.95;;;20.13;;
22007;SDS011;11168;56.976;24.168;2023-02-17T17:11:34;58.20;;;21.98;;
22007;SDS011;11168;56.976;24.168;2023-02-17T17:14:01;61.10;;;22.52;;
22007;SDS011;11168;56.976;24.168;2023-02-17T17:16:29;58.72;;;20.85;;
22007;SDS011;11168;56.976;24.168;2023-02-17T17:18:57;59.30;;;20.90;;
22007;SDS011;11168;56.976;24.168;2023-02-17T17:21:25;53.67;;;20.02;;
22007;SDS011;11168;56.976;24.168;2023-02-17T17:23:53;60.90;;;21.75;;
22007;SDS011;11168;56.976;24.168;2023-02-17T17:26:27;54.97;;;20.88;;
22007;SDS011;11168;56.976;24.168;2023-02-17T17:29:01;58.92;;;19.83;;
22007;SDS011;11168;56.976;24.168;2023-02-17T17:31:28;50.42;;;20.38;;
22007;SDS011;11168;56.976;24.168;2023-02-17T17:33:55;53.13;;;20.55;;
22007;SDS011;11168;56.976;24.168;2023-02-17T17:36:37;56.63;;;20.48;;
22007;SDS011;11168;56.976;24.168;2023-02-17T17:39:05;55.70;;;21.33;;
22007;SDS011;11168;56.976;24.168;2023-02-17T17:41:33;54.55;;;21.10;;
22007;SDS011;11168;56.976;24.168;2023-02-17T17:44:00;51.67;;;20.25;;
22007;SDS011;11168;56.976;24.168;2023-02-17T17:46:28;52.15;;;20.10;;
22007;SDS011;11168;56.976;24.168;2023-02-17T17:48:59;52.45;;;20.73;;
22007;SDS011;11168;56.976;24.168;2023-02-17T17:51:29;54.33;;;22.02;;
22007;SDS011;11168;56.976;24.168;2023-02-17T17:54:00;52.00;;;19.45;;
22007;SDS011;11168;56.976;24.168;2023-02-17T17:56:32;48.15;;;18.90;;
22007;SDS011;11168;56.976;24.168;2023-02-17T17:59:01;49.00;;;19.77;;
22007;SDS011;11168;56.976;24.168;2023-02-17T18:01:28;52.50;;;19.02;;
22007;SDS011;11168;56.976;24.168;2023-02-17T18:03:56;54.42;;;20.25;;
22007;SDS011;11168;56.976;24.168;2023-02-17T18:06:29;57.70;;;22.13;;
22007;SDS011;11168;56.976;24.168;2023-02-17T18:09:01;57.50;;;23.35;;
22007;SDS011;11168;56.976;24.168;2023-02-17T18:11:31;57.97;;;23.50;;
22007;SDS011;11168;56.976;24.168;2023-02-17T18:14:00;45.00;;;19.25;;
22007;SDS011;11168;56.976;24.168;2023-02-17T18:16:30;56.85;;;20.60;;
22007;SDS011;11168;56.976;24.168;2023-02-17T18:18:58;51.10;;;20.00;;
22007;SDS011;11168;56.976;24.168;2023-02-17T18:21:27;51.22;;;20.17;;
22007;SDS011;11168;56.976;24.168;2023-02-17T18:23:54;49.08;;;19.52;;
22007;SDS011;11168;56.976;24.168;2023-02-17T18:26:21;53.22;;;19.48;;
22007;SDS011;11168;56.976;24.168;2023-02-17T18:28:48;49.83;;;19.60;;
22007;SDS011;11168;56.976;24.168;2023-02-17T18:31:15;56.85;;;22.10;;
22007;SDS011;11168;56.976;24.168;2023-02-17T18:33:43;51.38;;;20.58;;
22007;SDS011;11168;56.976;24.168;2023-02-17T18:36:15;52.85;;;21.23;;
22007;SDS011;11168;56.976;24.168;2023-02-17T18:38:43;51.58;;;20.90;;
22007;SDS011;11168;56.976;24.168;2023-02-17T18:41:18;46.13;;;18.40;;
22007;SDS011;11168;56.976;24.168;2023-02-17T18:43:51;49.42;;;19.15;;
22007;SDS011;11168;56.976;24.168;2023-02-17T18:46:18;46.72;;;18.52;;
22007;SDS011;11168;56.976;24.168;2023-02-17T18:48:45;45.63;;;18.98;;
22007;SDS011;11168;56.976;24.168;2023-02-17T18:51:13;48.05;;;19.58;;
22007;SDS011;11168;56.976;24.168;2023-02-17T18:53:41;48.53;;;20.48;;
22007;SDS011;11168;56.976;24.168;2023-02-17T18:56:09;49.35;;;20.67;;
22007;SDS011;11168;56.976;24.168;2023-02-17T18:58:39;47.08;;;19.98;;
22007;SDS011;11168;56.976;24.168;2023-02-17T19:01:12;46.08;;;19.73;;
22007;SDS011;11168;56.976;24.168;2023-02-17T19:03:47;35.33;;;16.35;;
22007;SDS011;11168;56.976;24.168;2023-02-17T19:06:16;38.08;;;19.13;;
22007;SDS011;11168;56.976;24.168;2023-02-17T19:11:14;43.10;;;19.40;;
22007;SDS011;11168;56.976;24.168;2023-02-17T19:13:43;38.22;;;17.80;;
22007;SDS011;11168;56.976;24.168;2023-02-17T19:16:20;37.28;;;18.00;;
22007;SDS011;11168;56.976;24.168;2023-02-17T19:18:49;38.88;;;17.95;;